sensor_id;sensor_type;location;lat;lon;timestamp;P1;durP1;ratioP1;P2;durP2;ratioP2
10529;SDS011;5313;48.834;9.228;2023-05-10T00:01:03;0.00;;;0.00;;
10529;SDS011;5313;48.834;9.228;2023-05-10T00:03:29;0.00;;;0.00;;
10529;SDS011;5313;48.834;9.228;2023-05-10T00:05:54;0.00;;;0.00;;
10529;SDS011;5313;48.834;9.228;2023-05-10T00:08:20;0.00;;;0.00;;
10529;SDS011;5313;48.834;9.228;2023-05-10T00:10:45;0.00;;;0.00;;
10529;SDS011;5313;48.834;9.228;2023-05-10T00:13:11;0.00;;;0.00;;
10529;SDS011;5313;48.834;9.228;2023-05-10T00:15:36;0.00;;;0.00;;
10529;SDS011;5313;48.834;9.228;2023-05-10T00:18:02;0.00;;;0.00;;
10529;SDS011;5313;48.834;9.228;2023-05-10T00:20:27;0.00;;;0.00;;
10529;SDS011;5313;48.834;9.228;2023-05-10T00:22:53;0.00;;;0.00;;
10529;SDS011;5313;48.834;9.228;2023-05-10T00:25:18;0.00;;;0.00;;
10529;SDS011;5313;48.834;9.228;2023-05-10T00:27:45;0.00;;;0.00;;
10529;SDS011;5313;48.834;9.228;2023-05-10T00:30:11;0.00;;;0.00;;
10529;SDS011;5313;48.834;9.228;2023-05-10T00:32:36;0.00;;;0.00;;
10529;SDS011;5313;48.834;9.228;2023-05-10T00:35:02;0.00;;;0.00;;
10529;SDS011;5313;48.834;9.228;2023-05-10T00:37:27;0.00;;;0.00;;
10529;SDS011;5313;48.834;9.228;2023-05-10T00:39:53;0.00;;;0.00;;
10529;SDS011;5313;48.834;9.228;2023-05-10T00:42:18;0.00;;;0.00;;
10529;SDS011;5313;48.834;9.228;2023-05-10T00:44:44;0.00;;;0.00;;
10529;SDS011;5313;48.834;9.228;2023-05-10T00:47:09;0.00;;;0.00;;
10529;SDS011;5313;48.834;9.228;2023-05-10T00:49:35;0.00;;;0.00;;
10529;SDS011;5313;48.834;9.228;2023-05-10T00:52:01;0.00;;;0.00;;
10529;SDS011;5313;48.834;9.228;2023-05-10T00:54:27;0.00;;;0.00;;
10529;SDS011;5313;48.834;9.228;2023-05-10T00:56:53;0.00;;;0.00;;
10529;SDS011;5313;48.834;9.228;2023-05-10T00:59:19;0.00;;;0.00;;
10529;SDS011;5313;48.834;9.228;2023-05-10T01:01:46;0.00;;;0.00;;
10529;SDS011;5313;48.834;9.228;2023-05-10T01:04:12;0.00;;;0.00;;
10529;SDS011;5313;48.834;9.228;2023-05-10T01:06:42;0.00;;;0.00;;
10529;SDS011;5313;48.834;9.228;2023-05-10T01:09:07;0.00;;;0.00;;
10529;SDS011;5313;48.834;9.228;2023-05-10T01:11:36;0.00;;;0.00;;
10529;SDS011;5313;48.834;9.228;2023-05-10T01:14:03;0.00;;;0.00;;
10529;SDS011;5313;48.834;9.228;2023-05-10T01:16:35;0.00;;;0.00;;
10529;SDS011;5313;48.834;9.228;2023-05-10T01:19:03;0.00;;;0.00;;
10529;SDS011;5313;48.834;9.228;2023-05-10T01:21:38;0.00;;;0.00;;
10529;SDS011;5313;48.834;9.228;2023-05-10T01:27:20;0.00;;;0.00;;
10529;SDS011;5313;48.834;9.228;2023-05-10T01:30:18;0.00;;;0.00;;
10529;SDS011;5313;48.834;9.228;2023-05-10T01:38:42;0.00;;;0.00;;
10529;SDS011;5313;48.834;9.228;2023-05-10T01:41:30;0.00;;;0.00;;
10529;SDS011;5313;48.834;9.228;2023-05-10T01:44:16;0.00;;;0.00;;
10529;SDS011;5313;48.834;9.228;2023-05-10T01:46:46;0.00;;;0.00;;
10529;SDS011;5313;48.834;9.228;2023-05-10T01:49:25;0.00;;;0.00;;
10529;SDS011;5313;48.834;9.228;2023-05-10T01:51:54;0.00;;;0.00;;
10529;SDS011;5313;48.834;9.228;2023-05-10T01:54:27;0.00;;;0.00;;
10529;SDS011;5313;48.834;9.228;2023-05-10T01:57:01;0.00;;;0.00;;
10529;SDS011;5313;48.834;9.228;2023-05-10T01:59:30;0.00;;;0.00;;
10529;SDS011;5313;48.834;9.228;2023-05-10T02:02:04;0.00;;;0.00;;
10529;SDS011;5313;48.834;9.228;2023-05-10T02:04:30;0.00;;;0.00;;
10529;SDS011;5313;48.834;9.228;2023-05-10T02:06:58;0.00;;;0.00;;
10529;SDS011;5313;48.834;9.228;2023-05-10T02:09:23;0.00;;;0.00;;
10529;SDS011;5313;48.834;9.228;2023-05-10T02:11:51;0.00;;;0.00;;
10529;SDS011;5313;48.834;9.228;2023-05-10T02:14:18;0.00;;;0.00;;
10529;SDS011;5313;48.834;9.228;2023-05-10T02:16:45;0.00;;;0.00;;
10529;SDS011;5313;48.834;9.228;2023-05-10T02:19:12;0.00;;;0.00;;
10529;SDS011;5313;48.834;9.228;2023-05-10T02:21:39;0.73;;;0.73;;
10529;SDS011;5313;48.834;9.228;2023-05-10T02:24:06;0.00;;;0.00;;
10529;SDS011;5313;48.834;9.228;2023-05-10T02:26:33;0.00;;;0.00;;
10529;SDS011;5313;48.834;9.228;2023-05-10T02:29:01;0.00;;;0.00;;
10529;SDS011;5313;48.834;9.228;2023-05-10T02:31:28;0.00;;;0.00;;
10529;SDS011;5313;48.834;9.228;2023-05-10T02:33:56;0.00;;;0.00;;
10529;SDS011;5313;48.834;9.228;2023-05-10T02:36:23;0.00;;;0.00;;
10529;SDS011;5313;48.834;9.228;2023-05-10T02:38:52;0.00;;;0.00;;
10529;SDS011;5313;48.834;9.228;2023-05-10T02:41:18;0.00;;;0.00;;
10529;SDS011;5313;48.834;9.228;2023-05-10T02:43:47;0.00;;;0.00;;
10529;SDS011;5313;48.834;9.228;2023-05-10T02:46:15;0.00;;;0.00;;
10529;SDS011;5313;48.834;9.228;2023-05-10T02:48:41;0.00;;;0.00;;
10529;SDS011;5313;48.834;9.228;2023-05-10T02:51:07;0.00;;;0.00;;
10529;SDS011;5313;48.834;9.228;2023-05-10T02:53:33;0.00;;;0.00;;
10529;SDS011;5313;48.834;9.228;2023-05-10T02:56:05;0.00;;;0.00;;
10529;SDS011;5313;48.834;9.228;2023-05-10T02:58:39;0.00;;;0.00;;
10529;SDS011;5313;48.834;9.228;2023-05-10T03:01:04;0.00;;;0.00;;
10529;SDS011;5313;48.834;9.228;2023-05-10T03:03:31;0.00;;;0.00;;
10529;SDS011;5313;48.834;9.228;2023-05-10T03:05:57;0.00;;;0.00;;
10529;SDS011;5313;48.834;9.228;2023-05-10T03:08:23;0.00;;;0.00;;
10529;SDS011;5313;48.834;9.228;2023-05-10T03:10:54;0.00;;;0.00;;
10529;SDS011;5313;48.834;9.228;2023-05-10T03:13:36;0.00;;;0.00;;
10529;SDS011;5313;48.834;9.228;2023-05-10T03:16:12;0.23;;;0.23;;
10529;SDS011;5313;48.834;9.228;2023-05-10T03:18:42;0.00;;;0.00;;
10529;SDS011;5313;48.834;9.228;2023-05-10T03:21:12;0.00;;;0.00;;
10529;SDS011;5313;48.834;9.228;2023-05-10T03:23:50;0.00;;;0.00;;
10529;SDS011;5313;48.834;9.228;2023-05-10T03:26:23;0.00;;;0.00;;
10529;SDS011;5313;48.834;9.228;2023-05-10T03:28:50;0.00;;;0.00;;
10529;SDS011;5313;48.834;9.228;2023-05-10T03:31:17;0.20;;;0.20;;
10529;SDS011;5313;48.834;9.228;2023-05-10T03:33:50;0.00;;;0.00;;
10529;SDS011;5313;48.834;9.228;2023-05-10T03:36:16;1.20;;;0.83;;
10529;SDS011;5313;48.834;9.228;2023-05-10T03:38:42;0.00;;;0.00;;
10529;SDS011;5313;48.834;9.228;2023-05-10T03:41:08;0.00;;;0.00;;
10529;SDS011;5313;48.834;9.228;2023-05-10T03:43:33;0.00;;;0.00;;
10529;SDS011;5313;48.834;9.228;2023-05-10T03:46:01;0.00;;;0.00;;
10529;SDS011;5313;48.834;9.228;2023-05-10T03:48:27;0.00;;;0.00;;
10529;SDS011;5313;48.834;9.228;2023-05-10T03:50:53;0.00;;;0.00;;
10529;SDS011;5313;48.834;9.228;2023-05-10T03:53:18;0.00;;;0.00;;
10529;SDS011;5313;48.834;9.228;2023-05-10T03:55:44;0.00;;;0.00;;
10529;SDS011;5313;48.834;9.228;2023-05-10T03:58:12;0.20;;;0.20;;
10529;SDS011;5313;48.834;9.228;2023-05-10T04:00:38;0.00;;;0.00;;
10529;SDS011;5313;48.834;9.228;2023-05-10T04:03:08;0.00;;;0.00;;
10529;SDS011;5313;48.834;9.228;2023-05-10T04:05:34;0.00;;;0.00;;
10529;SDS011;5313;48.834;9.228;2023-05-10T04:08:00;0.00;;;0.00;;
10529;SDS011;5313;48.834;9.228;2023-05-10T04:10:26;0.00;;;0.00;;
10529;SDS011;5313;48.834;9.228;2023-05-10T04:12:52;0.00;;;0.00;;
10529;SDS011;5313;48.834;9.228;2023-05-10T04:15:17;0.00;;;0.00;;
10529;SDS011;5313;48.834;9.228;2023-05-10T04:17:43;0.00;;;0.00;;
10529;SDS011;5313;48.834;9.228;2023-05-10T04:20:08;0.00;;;0.00;;
10529;SDS011;5313;48.834;9.228;2023-05-10T04:22:34;0.00;;;0.00;;
10529;SDS011;5313;48.834;9.228;2023-05-10T04:25:00;0.47;;;0.47;;
10529;SDS011;5313;48.834;9.228;2023-05-10T04:27:25;0.00;;;0.00;;
10529;SDS011;5313;48.834;9.228;2023-05-10T04:29:51;0.10;;;0.10;;
10529;SDS011;5313;48.834;9.228;2023-05-10T04:32:16;0.00;;;0.00;;
10529;SDS011;5313;48.834;9.228;2023-05-10T04:34:43;0.00;;;0.00;;
10529;SDS011;5313;48.834;9.228;2023-05-10T04:37:08;0.00;;;0.00;;
10529;SDS011;5313;48.834;9.228;2023-05-10T04:39:34;0.00;;;0.00;;
10529;SDS011;5313;48.834;9.228;2023-05-10T04:42:00;0.00;;;0.00;;
10529;SDS011;5313;48.834;9.228;2023-05-10T04:44:27;0.00;;;0.00;;
10529;SDS011;5313;48.834;9.228;2023-05-10T04:46:53;0.00;;;0.00;;
10529;SDS011;5313;48.834;9.228;2023-05-10T04:49:19;0.00;;;0.00;;
10529;SDS011;5313;48.834;9.228;2023-05-10T04:51:44;0.00;;;0.00;;
10529;SDS011;5313;48.834;9.228;2023-05-10T04:54:10;0.00;;;0.00;;
10529;SDS011;5313;48.834;9.228;2023-05-10T04:56:35;0.00;;;0.00;;
10529;SDS011;5313;48.834;9.228;2023-05-10T04:59:01;0.00;;;0.00;;
10529;SDS011;5313;48.834;9.228;2023-05-10T05:01:27;0.00;;;0.00;;
10529;SDS011;5313;48.834;9.228;2023-05-10T05:03:53;0.00;;;0.00;;
10529;SDS011;5313;48.834;9.228;2023-05-10T05:06:19;0.00;;;0.00;;
10529;SDS011;5313;48.834;9.228;2023-05-10T05:08:45;0.00;;;0.00;;
10529;SDS011;5313;48.834;9.228;2023-05-10T05:11:11;0.00;;;0.00;;
10529;SDS011;5313;48.834;9.228;2023-05-10T05:13:37;0.00;;;0.00;;
10529;SDS011;5313;48.834;9.228;2023-05-10T05:16:02;0.00;;;0.00;;
10529;SDS011;5313;48.834;9.228;2023-05-10T05:18:28;0.00;;;0.00;;
10529;SDS011;5313;48.834;9.228;2023-05-10T05:20:54;0.10;;;0.10;;
10529;SDS011;5313;48.834;9.228;2023-05-10T05:23:19;0.00;;;0.00;;
10529;SDS011;5313;48.834;9.228;2023-05-10T05:25:45;0.00;;;0.00;;
10529;SDS011;5313;48.834;9.228;2023-05-10T05:28:11;0.00;;;0.00;;
10529;SDS011;5313;48.834;9.228;2023-05-10T05:30:37;0.00;;;0.00;;
10529;SDS011;5313;48.834;9.228;2023-05-10T05:33:03;0.00;;;0.00;;
10529;SDS011;5313;48.834;9.228;2023-05-10T05:35:28;0.00;;;0.00;;
10529;SDS011;5313;48.834;9.228;2023-05-10T05:37:54;5.20;;;1.03;;
10529;SDS011;5313;48.834;9.228;2023-05-10T05:40:20;0.00;;;0.00;;
10529;SDS011;5313;48.834;9.228;2023-05-10T05:42:46;0.00;;;0.00;;
10529;SDS011;5313;48.834;9.228;2023-05-10T05:45:11;0.00;;;0.00;;
10529;SDS011;5313;48.834;9.228;2023-05-10T05:47:40;0.17;;;0.10;;
10529;SDS011;5313;48.834;9.228;2023-05-10T05:50:06;0.00;;;0.00;;
10529;SDS011;5313;48.834;9.228;2023-05-10T05:52:32;0.00;;;0.00;;
10529;SDS011;5313;48.834;9.228;2023-05-10T05:54:57;0.00;;;0.00;;
10529;SDS011;5313;48.834;9.228;2023-05-10T05:57:23;0.00;;;0.00;;
10529;SDS011;5313;48.834;9.228;2023-05-10T05:59:48;0.00;;;0.00;;
10529;SDS011;5313;48.834;9.228;2023-05-10T06:02:14;0.00;;;0.00;;
10529;SDS011;5313;48.834;9.228;2023-05-10T06:04:39;0.47;;;0.27;;
10529;SDS011;5313;48.834;9.228;2023-05-10T06:07:05;0.00;;;0.00;;
10529;SDS011;5313;48.834;9.228;2023-05-10T06:09:30;0.00;;;0.00;;
10529;SDS011;5313;48.834;9.228;2023-05-10T06:11:56;0.00;;;0.00;;
10529;SDS011;5313;48.834;9.228;2023-05-10T06:14:22;0.00;;;0.00;;
10529;SDS011;5313;48.834;9.228;2023-05-10T06:16:47;0.00;;;0.00;;
10529;SDS011;5313;48.834;9.228;2023-05-10T06:19:13;0.00;;;0.00;;
10529;SDS011;5313;48.834;9.228;2023-05-10T06:21:39;0.00;;;0.00;;
10529;SDS011;5313;48.834;9.228;2023-05-10T06:24:05;0.00;;;0.00;;
10529;SDS011;5313;48.834;9.228;2023-05-10T06:26:31;0.00;;;0.00;;
10529;SDS011;5313;48.834;9.228;2023-05-10T06:28:57;0.00;;;0.00;;
10529;SDS011;5313;48.834;9.228;2023-05-10T06:31:22;0.00;;;0.00;;
10529;SDS011;5313;48.834;9.228;2023-05-10T06:33:48;0.00;;;0.00;;
10529;SDS011;5313;48.834;9.228;2023-05-10T06:36:13;0.00;;;0.00;;
10529;SDS011;5313;48.834;9.228;2023-05-10T06:38:39;0.00;;;0.00;;
10529;SDS011;5313;48.834;9.228;2023-05-10T06:41:05;0.00;;;0.00;;
10529;SDS011;5313;48.834;9.228;2023-05-10T06:43:30;0.00;;;0.00;;
10529;SDS011;5313;48.834;9.228;2023-05-10T06:45:56;0.00;;;0.00;;
10529;SDS011;5313;48.834;9.228;2023-05-10T06:48:22;0.00;;;0.00;;
10529;SDS011;5313;48.834;9.228;2023-05-10T06:50:47;0.00;;;0.00;;
10529;SDS011;5313;48.834;9.228;2023-05-10T06:53:13;0.00;;;0.00;;
10529;SDS011;5313;48.834;9.228;2023-05-10T06:55:39;0.00;;;0.00;;
10529;SDS011;5313;48.834;9.228;2023-05-10T06:58:04;0.00;;;0.00;;
10529;SDS011;5313;48.834;9.228;2023-05-10T07:00:31;0.00;;;0.00;;
10529;SDS011;5313;48.834;9.228;2023-05-10T07:02:56;0.00;;;0.00;;
10529;SDS011;5313;48.834;9.228;2023-05-10T07:05:22;0.00;;;0.00;;
10529;SDS011;5313;48.834;9.228;2023-05-10T07:07:47;0.00;;;0.00;;
10529;SDS011;5313;48.834;9.228;2023-05-10T07:10:13;0.10;;;0.10;;
10529;SDS011;5313;48.834;9.228;2023-05-10T07:12:38;1.07;;;0.40;;
10529;SDS011;5313;48.834;9.228;2023-05-10T07:15:04;0.37;;;0.37;;
10529;SDS011;5313;48.834;9.228;2023-05-10T07:17:31;0.60;;;0.40;;
10529;SDS011;5313;48.834;9.228;2023-05-10T07:19:58;0.90;;;0.70;;
10529;SDS011;5313;48.834;9.228;2023-05-10T07:22:23;1.57;;;1.00;;
10529;SDS011;5313;48.834;9.228;2023-05-10T07:24:49;1.70;;;1.10;;
10529;SDS011;5313;48.834;9.228;2023-05-10T07:27:15;1.50;;;1.13;;
10529;SDS011;5313;48.834;9.228;2023-05-10T07:29:40;1.40;;;0.90;;
10529;SDS011;5313;48.834;9.228;2023-05-10T07:32:06;2.10;;;1.10;;
10529;SDS011;5313;48.834;9.228;2023-05-10T07:34:31;1.77;;;1.10;;
10529;SDS011;5313;48.834;9.228;2023-05-10T07:37:00;2.63;;;1.20;;
10529;SDS011;5313;48.834;9.228;2023-05-10T07:39:26;2.17;;;0.90;;
10529;SDS011;5313;48.834;9.228;2023-05-10T07:41:52;1.20;;;1.10;;
10529;SDS011;5313;48.834;9.228;2023-05-10T07:44:18;2.60;;;1.00;;
10529;SDS011;5313;48.834;9.228;2023-05-10T07:46:45;1.10;;;1.00;;
10529;SDS011;5313;48.834;9.228;2023-05-10T07:49:11;3.63;;;0.97;;
10529;SDS011;5313;48.834;9.228;2023-05-10T07:51:36;1.60;;;1.00;;
10529;SDS011;5313;48.834;9.228;2023-05-10T07:54:02;7.03;;;1.30;;
10529;SDS011;5313;48.834;9.228;2023-05-10T07:56:31;1.70;;;1.07;;
10529;SDS011;5313;48.834;9.228;2023-05-10T07:58:58;2.30;;;0.90;;
10529;SDS011;5313;48.834;9.228;2023-05-10T08:01:24;1.30;;;1.00;;
10529;SDS011;5313;48.834;9.228;2023-05-10T08:03:51;2.70;;;0.90;;
10529;SDS011;5313;48.834;9.228;2023-05-10T08:06:18;2.70;;;0.90;;
10529;SDS011;5313;48.834;9.228;2023-05-10T08:08:45;1.13;;;0.80;;
10529;SDS011;5313;48.834;9.228;2023-05-10T08:11:14;2.80;;;1.90;;
10529;SDS011;5313;48.834;9.228;2023-05-10T08:13:46;1.77;;;1.00;;
10529;SDS011;5313;48.834;9.228;2023-05-10T08:16:13;2.53;;;0.90;;
10529;SDS011;5313;48.834;9.228;2023-05-10T08:18:39;0.87;;;0.80;;
10529;SDS011;5313;48.834;9.228;2023-05-10T08:21:05;1.17;;;0.90;;
10529;SDS011;5313;48.834;9.228;2023-05-10T08:23:31;1.13;;;0.63;;
10529;SDS011;5313;48.834;9.228;2023-05-10T08:25:56;1.07;;;0.90;;
10529;SDS011;5313;48.834;9.228;2023-05-10T08:28:22;1.10;;;0.70;;
10529;SDS011;5313;48.834;9.228;2023-05-10T08:30:47;1.13;;;0.80;;
10529;SDS011;5313;48.834;9.228;2023-05-10T08:33:14;0.80;;;0.80;;
10529;SDS011;5313;48.834;9.228;2023-05-10T08:35:41;0.77;;;0.77;;
10529;SDS011;5313;48.834;9.228;2023-05-10T08:38:06;0.80;;;0.70;;
10529;SDS011;5313;48.834;9.228;2023-05-10T08:40:32;1.43;;;0.70;;
10529;SDS011;5313;48.834;9.228;2023-05-10T08:43:10;0.93;;;0.63;;
10529;SDS011;5313;48.834;9.228;2023-05-10T08:45:37;2.50;;;0.60;;
10529;SDS011;5313;48.834;9.228;2023-05-10T08:48:04;1.50;;;0.50;;
10529;SDS011;5313;48.834;9.228;2023-05-10T08:50:31;0.80;;;0.50;;
10529;SDS011;5313;48.834;9.228;2023-05-10T08:52:59;0.90;;;0.80;;
10529;SDS011;5313;48.834;9.228;2023-05-10T08:55:27;2.33;;;0.80;;
10529;SDS011;5313;48.834;9.228;2023-05-10T08:57:53;1.57;;;0.53;;
10529;SDS011;5313;48.834;9.228;2023-05-10T09:00:18;1.27;;;0.53;;
10529;SDS011;5313;48.834;9.228;2023-05-10T09:02:45;0.90;;;0.53;;
10529;SDS011;5313;48.834;9.228;2023-05-10T09:05:13;0.50;;;0.50;;
10529;SDS011;5313;48.834;9.228;2023-05-10T09:07:40;0.73;;;0.43;;
10529;SDS011;5313;48.834;9.228;2023-05-10T09:10:06;0.60;;;0.40;;
10529;SDS011;5313;48.834;9.228;2023-05-10T09:12:33;2.43;;;0.70;;
10529;SDS011;5313;48.834;9.228;2023-05-10T09:14:59;0.73;;;0.60;;
10529;SDS011;5313;48.834;9.228;2023-05-10T09:17:26;2.60;;;0.80;;
10529;SDS011;5313;48.834;9.228;2023-05-10T09:19:57;0.93;;;0.50;;
10529;SDS011;5313;48.834;9.228;2023-05-10T09:22:27;1.00;;;0.60;;
10529;SDS011;5313;48.834;9.228;2023-05-10T09:27:48;1.90;;;0.80;;
10529;SDS011;5313;48.834;9.228;2023-05-10T09:30:15;1.03;;;0.30;;
10529;SDS011;5313;48.834;9.228;2023-05-10T09:32:44;0.63;;;0.37;;
10529;SDS011;5313;48.834;9.228;2023-05-10T09:35:11;1.10;;;0.63;;
10529;SDS011;5313;48.834;9.228;2023-05-10T09:37:41;1.13;;;0.40;;
10529;SDS011;5313;48.834;9.228;2023-05-10T09:40:11;0.70;;;0.57;;
10529;SDS011;5313;48.834;9.228;2023-05-10T09:42:40;0.93;;;0.60;;
10529;SDS011;5313;48.834;9.228;2023-05-10T09:45:16;1.07;;;0.60;;
10529;SDS011;5313;48.834;9.228;2023-05-10T09:47:42;1.33;;;0.50;;
10529;SDS011;5313;48.834;9.228;2023-05-10T09:50:07;0.90;;;0.50;;
10529;SDS011;5313;48.834;9.228;2023-05-10T09:55:16;0.70;;;0.57;;
10529;SDS011;5313;48.834;9.228;2023-05-10T09:57:43;2.00;;;0.63;;
10529;SDS011;5313;48.834;9.228;2023-05-10T10:00:09;1.37;;;0.60;;
10529;SDS011;5313;48.834;9.228;2023-05-10T10:02:35;1.00;;;0.70;;
10529;SDS011;5313;48.834;9.228;2023-05-10T10:05:01;1.07;;;0.50;;
10529;SDS011;5313;48.834;9.228;2023-05-10T10:07:28;0.83;;;0.57;;
10529;SDS011;5313;48.834;9.228;2023-05-10T10:09:54;0.77;;;0.53;;
10529;SDS011;5313;48.834;9.228;2023-05-10T10:12:20;0.80;;;0.60;;
10529;SDS011;5313;48.834;9.228;2023-05-10T10:14:46;0.80;;;0.50;;
10529;SDS011;5313;48.834;9.228;2023-05-10T10:17:13;0.83;;;0.43;;
10529;SDS011;5313;48.834;9.228;2023-05-10T10:19:39;1.03;;;0.60;;
10529;SDS011;5313;48.834;9.228;2023-05-10T10:22:06;3.43;;;0.80;;
10529;SDS011;5313;48.834;9.228;2023-05-10T10:24:31;0.60;;;0.50;;
10529;SDS011;5313;48.834;9.228;2023-05-10T10:26:59;0.47;;;0.40;;
10529;SDS011;5313;48.834;9.228;2023-05-10T10:32:33;0.90;;;0.50;;
10529;SDS011;5313;48.834;9.228;2023-05-10T10:35:24;1.37;;;0.60;;
10529;SDS011;5313;48.834;9.228;2023-05-10T10:37:50;1.93;;;0.60;;
10529;SDS011;5313;48.834;9.228;2023-05-10T10:40:26;1.37;;;0.70;;
10529;SDS011;5313;48.834;9.228;2023-05-10T10:42:53;1.53;;;0.80;;
10529;SDS011;5313;48.834;9.228;2023-05-10T10:45:20;1.10;;;0.60;;
10529;SDS011;5313;48.834;9.228;2023-05-10T10:47:46;0.87;;;0.70;;
10529;SDS011;5313;48.834;9.228;2023-05-10T10:50:12;1.20;;;0.67;;
10529;SDS011;5313;48.834;9.228;2023-05-10T10:52:38;1.03;;;0.57;;
10529;SDS011;5313;48.834;9.228;2023-05-10T11:02:52;0.57;;;0.57;;
10529;SDS011;5313;48.834;9.228;2023-05-10T11:08:15;0.60;;;0.40;;
10529;SDS011;5313;48.834;9.228;2023-05-10T11:10:49;1.50;;;0.30;;
10529;SDS011;5313;48.834;9.228;2023-05-10T11:16:18;1.50;;;0.63;;
10529;SDS011;5313;48.834;9.228;2023-05-10T11:18:58;1.70;;;0.73;;
10529;SDS011;5313;48.834;9.228;2023-05-10T11:21:27;2.33;;;0.60;;
10529;SDS011;5313;48.834;9.228;2023-05-10T11:23:54;1.47;;;0.50;;
10529;SDS011;5313;48.834;9.228;2023-05-10T11:26:21;1.30;;;0.70;;
10529;SDS011;5313;48.834;9.228;2023-05-10T11:28:52;0.50;;;0.50;;
10529;SDS011;5313;48.834;9.228;2023-05-10T11:31:23;2.00;;;0.70;;
10529;SDS011;5313;48.834;9.228;2023-05-10T11:33:52;2.07;;;0.40;;
10529;SDS011;5313;48.834;9.228;2023-05-10T11:38:46;0.80;;;0.53;;
10529;SDS011;5313;48.834;9.228;2023-05-10T11:41:13;2.53;;;0.50;;
10529;SDS011;5313;48.834;9.228;2023-05-10T11:43:38;2.23;;;0.53;;
10529;SDS011;5313;48.834;9.228;2023-05-10T11:46:08;1.77;;;0.70;;
10529;SDS011;5313;48.834;9.228;2023-05-10T11:48:36;1.47;;;1.10;;
10529;SDS011;5313;48.834;9.228;2023-05-10T11:51:03;3.03;;;0.60;;
10529;SDS011;5313;48.834;9.228;2023-05-10T11:53:29;2.23;;;0.67;;
10529;SDS011;5313;48.834;9.228;2023-05-10T11:56:02;0.77;;;0.50;;
10529;SDS011;5313;48.834;9.228;2023-05-10T11:58:30;1.33;;;0.63;;
10529;SDS011;5313;48.834;9.228;2023-05-10T12:00:56;2.20;;;0.80;;
10529;SDS011;5313;48.834;9.228;2023-05-10T12:03:21;1.20;;;0.77;;
10529;SDS011;5313;48.834;9.228;2023-05-10T12:05:47;2.57;;;0.90;;
10529;SDS011;5313;48.834;9.228;2023-05-10T12:08:19;2.77;;;0.80;;
10529;SDS011;5313;48.834;9.228;2023-05-10T12:10:46;3.70;;;0.90;;
10529;SDS011;5313;48.834;9.228;2023-05-10T12:13:12;1.60;;;0.73;;
10529;SDS011;5313;48.834;9.228;2023-05-10T12:15:41;1.70;;;0.80;;
10529;SDS011;5313;48.834;9.228;2023-05-10T12:18:08;2.50;;;0.70;;
10529;SDS011;5313;48.834;9.228;2023-05-10T12:20:35;3.63;;;1.10;;
10529;SDS011;5313;48.834;9.228;2023-05-10T12:23:01;2.63;;;0.70;;
10529;SDS011;5313;48.834;9.228;2023-05-10T12:25:31;2.50;;;0.90;;
10529;SDS011;5313;48.834;9.228;2023-05-10T12:27:58;3.80;;;1.00;;
10529;SDS011;5313;48.834;9.228;2023-05-10T12:30:30;2.90;;;0.77;;
10529;SDS011;5313;48.834;9.228;2023-05-10T12:33:00;1.93;;;0.90;;
10529;SDS011;5313;48.834;9.228;2023-05-10T12:35:31;2.90;;;0.90;;
10529;SDS011;5313;48.834;9.228;2023-05-10T12:37:57;1.00;;;0.70;;
10529;SDS011;5313;48.834;9.228;2023-05-10T12:40:23;1.70;;;0.90;;
10529;SDS011;5313;48.834;9.228;2023-05-10T12:42:48;1.60;;;0.80;;
10529;SDS011;5313;48.834;9.228;2023-05-10T12:45:14;3.30;;;0.90;;
10529;SDS011;5313;48.834;9.228;2023-05-10T12:47:39;1.57;;;0.80;;
10529;SDS011;5313;48.834;9.228;2023-05-10T12:50:05;1.47;;;0.90;;
10529;SDS011;5313;48.834;9.228;2023-05-10T12:52:31;6.10;;;1.20;;
10529;SDS011;5313;48.834;9.228;2023-05-10T12:54:57;2.00;;;0.87;;
10529;SDS011;5313;48.834;9.228;2023-05-10T12:57:23;0.90;;;0.60;;
10529;SDS011;5313;48.834;9.228;2023-05-10T12:59:50;1.30;;;0.73;;
10529;SDS011;5313;48.834;9.228;2023-05-10T13:02:15;2.97;;;0.70;;
10529;SDS011;5313;48.834;9.228;2023-05-10T13:04:43;0.97;;;0.60;;
10529;SDS011;5313;48.834;9.228;2023-05-10T13:07:11;1.10;;;0.80;;
10529;SDS011;5313;48.834;9.228;2023-05-10T13:09:37;2.77;;;0.80;;
10529;SDS011;5313;48.834;9.228;2023-05-10T13:12:03;2.57;;;0.80;;
10529;SDS011;5313;48.834;9.228;2023-05-10T13:14:29;1.33;;;0.93;;
10529;SDS011;5313;48.834;9.228;2023-05-10T13:16:55;1.90;;;0.77;;
10529;SDS011;5313;48.834;9.228;2023-05-10T13:19:20;1.30;;;0.90;;
10529;SDS011;5313;48.834;9.228;2023-05-10T13:21:46;1.57;;;0.70;;
10529;SDS011;5313;48.834;9.228;2023-05-10T13:24:12;1.40;;;0.73;;
10529;SDS011;5313;48.834;9.228;2023-05-10T13:26:40;2.57;;;0.80;;
10529;SDS011;5313;48.834;9.228;2023-05-10T13:29:06;2.47;;;0.90;;
10529;SDS011;5313;48.834;9.228;2023-05-10T13:31:33;2.17;;;0.70;;
10529;SDS011;5313;48.834;9.228;2023-05-10T13:33:59;3.23;;;1.00;;
10529;SDS011;5313;48.834;9.228;2023-05-10T13:36:25;1.77;;;0.70;;
10529;SDS011;5313;48.834;9.228;2023-05-10T13:38:50;1.40;;;0.97;;
10529;SDS011;5313;48.834;9.228;2023-05-10T13:41:16;1.77;;;0.87;;
10529;SDS011;5313;48.834;9.228;2023-05-10T13:43:41;2.17;;;0.70;;
10529;SDS011;5313;48.834;9.228;2023-05-10T13:46:07;0.80;;;0.70;;
10529;SDS011;5313;48.834;9.228;2023-05-10T13:48:32;1.73;;;0.70;;
10529;SDS011;5313;48.834;9.228;2023-05-10T13:50:58;4.20;;;0.70;;
10529;SDS011;5313;48.834;9.228;2023-05-10T13:53:23;3.33;;;0.90;;
10529;SDS011;5313;48.834;9.228;2023-05-10T13:55:49;2.00;;;0.67;;
10529;SDS011;5313;48.834;9.228;2023-05-10T13:58:15;1.30;;;0.70;;
10529;SDS011;5313;48.834;9.228;2023-05-10T14:00:40;1.80;;;1.10;;
10529;SDS011;5313;48.834;9.228;2023-05-10T14:03:06;1.33;;;0.60;;
10529;SDS011;5313;48.834;9.228;2023-05-10T14:05:33;0.83;;;0.70;;
10529;SDS011;5313;48.834;9.228;2023-05-10T14:07:59;2.03;;;0.87;;
10529;SDS011;5313;48.834;9.228;2023-05-10T14:10:25;1.33;;;0.80;;
10529;SDS011;5313;48.834;9.228;2023-05-10T14:12:50;1.63;;;0.80;;
10529;SDS011;5313;48.834;9.228;2023-05-10T14:15:16;2.67;;;0.67;;
10529;SDS011;5313;48.834;9.228;2023-05-10T14:17:41;1.70;;;0.70;;
10529;SDS011;5313;48.834;9.228;2023-05-10T14:20:07;5.70;;;0.80;;
10529;SDS011;5313;48.834;9.228;2023-05-10T14:22:33;0.90;;;0.60;;
10529;SDS011;5313;48.834;9.228;2023-05-10T14:24:59;3.07;;;1.13;;
10529;SDS011;5313;48.834;9.228;2023-05-10T14:27:25;1.30;;;0.80;;
10529;SDS011;5313;48.834;9.228;2023-05-10T14:29:50;2.10;;;0.70;;
10529;SDS011;5313;48.834;9.228;2023-05-10T14:32:16;1.97;;;0.90;;
10529;SDS011;5313;48.834;9.228;2023-05-10T14:34:42;3.27;;;0.80;;
10529;SDS011;5313;48.834;9.228;2023-05-10T14:37:09;1.30;;;0.57;;
10529;SDS011;5313;48.834;9.228;2023-05-10T14:39:36;0.90;;;0.57;;
10529;SDS011;5313;48.834;9.228;2023-05-10T14:42:01;5.20;;;0.77;;
10529;SDS011;5313;48.834;9.228;2023-05-10T14:44:27;2.23;;;0.73;;
10529;SDS011;5313;48.834;9.228;2023-05-10T14:46:53;1.57;;;0.70;;
10529;SDS011;5313;48.834;9.228;2023-05-10T14:49:18;3.83;;;0.70;;
10529;SDS011;5313;48.834;9.228;2023-05-10T14:51:44;0.90;;;0.80;;
10529;SDS011;5313;48.834;9.228;2023-05-10T14:54:10;1.43;;;0.63;;
10529;SDS011;5313;48.834;9.228;2023-05-10T14:56:36;1.73;;;0.70;;
10529;SDS011;5313;48.834;9.228;2023-05-10T14:59:02;1.60;;;0.60;;
10529;SDS011;5313;48.834;9.228;2023-05-10T15:01:28;2.63;;;0.70;;
10529;SDS011;5313;48.834;9.228;2023-05-10T15:03:54;0.97;;;0.70;;
10529;SDS011;5313;48.834;9.228;2023-05-10T15:06:22;1.50;;;0.70;;
10529;SDS011;5313;48.834;9.228;2023-05-10T15:08:50;0.90;;;0.77;;
10529;SDS011;5313;48.834;9.228;2023-05-10T15:11:16;1.30;;;0.63;;
10529;SDS011;5313;48.834;9.228;2023-05-10T15:13:42;1.67;;;0.73;;
10529;SDS011;5313;48.834;9.228;2023-05-10T15:16:08;2.40;;;0.80;;
10529;SDS011;5313;48.834;9.228;2023-05-10T15:18:33;2.00;;;1.07;;
10529;SDS011;5313;48.834;9.228;2023-05-10T15:20:59;2.03;;;0.83;;
10529;SDS011;5313;48.834;9.228;2023-05-10T15:23:24;1.30;;;0.77;;
10529;SDS011;5313;48.834;9.228;2023-05-10T15:25:50;1.07;;;0.70;;
10529;SDS011;5313;48.834;9.228;2023-05-10T15:28:17;1.33;;;0.70;;
10529;SDS011;5313;48.834;9.228;2023-05-10T15:30:42;4.07;;;0.90;;
10529;SDS011;5313;48.834;9.228;2023-05-10T15:33:08;2.90;;;0.90;;